sensor_id;sensor_type;location;lat;lon;timestamp;P1;durP1;ratioP1;P2;durP2;ratioP2
54123;SDS011;55741;53.252;5.788;2022-08-19T00:01:40;15.07;;;10.35;;
54123;SDS011;55741;53.252;5.788;2022-08-19T00:04:08;16.33;;;11.40;;
54123;SDS011;55741;53.252;5.788;2022-08-19T00:06:37;15.63;;;11.27;;
54123;SDS011;55741;53.252;5.788;2022-08-19T00:09:05;15.25;;;11.32;;
54123;SDS011;55741;53.252;5.788;2022-08-19T00:11:33;13.40;;;10.88;;
54123;SDS011;55741;53.252;5.788;2022-08-19T00:14:01;14.85;;;10.10;;
54123;SDS011;55741;53.252;5.788;2022-08-19T00:16:27;15.85;;;9.75;;
54123;SDS011;55741;53.252;5.788;2022-08-19T00:18:53;11.75;;;10.02;;
54123;SDS011;55741;53.252;5.788;2022-08-19T00:21:20;13.35;;;10.05;;
54123;SDS011;55741;53.252;5.788;2022-08-19T00:23:47;15.77;;;11.23;;
54123;SDS011;55741;53.252;5.788;2022-08-19T00:26:13;15.52;;;10.70;;
54123;SDS011;55741;53.252;5.788;2022-08-19T00:28:40;14.10;;;11.13;;
54123;SDS011;55741;53.252;5.788;2022-08-19T00:31:06;12.90;;;9.52;;
54123;SDS011;55741;53.252;5.788;2022-08-19T00:33:34;11.48;;;9.52;;
54123;SDS011;55741;53.252;5.788;2022-08-19T00:36:00;13.88;;;8.65;;
54123;SDS011;55741;53.252;5.788;2022-08-19T00:38:32;12.40;;;10.07;;
54123;SDS011;55741;53.252;5.788;2022-08-19T00:40:58;16.25;;;11.73;;
54123;SDS011;55741;53.252;5.788;2022-08-19T00:43:25;14.60;;;11.07;;
54123;SDS011;55741;53.252;5.788;2022-08-19T00:45:52;14.80;;;10.20;;
54123;SDS011;55741;53.252;5.788;2022-08-19T00:48:18;14.70;;;10.93;;
54123;SDS011;55741;53.252;5.788;2022-08-19T00:50:46;15.05;;;10.88;;
54123;SDS011;55741;53.252;5.788;2022-08-19T00:53:16;16.45;;;11.80;;
54123;SDS011;55741;53.252;5.788;2022-08-19T00:55:45;12.60;;;10.15;;
54123;SDS011;55741;53.252;5.788;2022-08-19T00:58:14;16.38;;;11.43;;
54123;SDS011;55741;53.252;5.788;2022-08-19T01:00:43;13.50;;;10.82;;
54123;SDS011;55741;53.252;5.788;2022-08-19T01:03:12;13.90;;;10.95;;
54123;SDS011;55741;53.252;5.788;2022-08-19T01:05:41;10.77;;;9.68;;
54123;SDS011;55741;53.252;5.788;2022-08-19T01:08:09;16.65;;;11.63;;
54123;SDS011;55741;53.252;5.788;2022-08-19T01:10:37;15.18;;;10.73;;
54123;SDS011;55741;53.252;5.788;2022-08-19T01:13:30;14.43;;;12.23;;
54123;SDS011;55741;53.252;5.788;2022-08-19T01:16:03;14.77;;;12.43;;
54123;SDS011;55741;53.252;5.788;2022-08-19T01:18:32;15.10;;;11.52;;
54123;SDS011;55741;53.252;5.788;2022-08-19T01:21:05;13.95;;;12.25;;
54123;SDS011;55741;53.252;5.788;2022-08-19T01:23:37;15.40;;;11.55;;
54123;SDS011;55741;53.252;5.788;2022-08-19T01:26:13;15.10;;;11.38;;
54123;SDS011;55741;53.252;5.788;2022-08-19T01:28:42;13.32;;;11.05;;
54123;SDS011;55741;53.252;5.788;2022-08-19T01:31:10;13.20;;;11.82;;
54123;SDS011;55741;53.252;5.788;2022-08-19T01:33:39;11.38;;;10.27;;
54123;SDS011;55741;53.252;5.788;2022-08-19T01:36:12;13.60;;;10.57;;
54123;SDS011;55741;53.252;5.788;2022-08-19T01:38:47;14.40;;;12.07;;
54123;SDS011;55741;53.252;5.788;2022-08-19T01:41:14;15.02;;;11.25;;
54123;SDS011;55741;53.252;5.788;2022-08-19T01:43:40;14.05;;;11.35;;
54123;SDS011;55741;53.252;5.788;2022-08-19T01:46:06;13.65;;;12.25;;
54123;SDS011;55741;53.252;5.788;2022-08-19T01:48:40;15.30;;;11.15;;
54123;SDS011;55741;53.252;5.788;2022-08-19T01:51:08;13.65;;;11.10;;
54123;SDS011;55741;53.252;5.788;2022-08-19T01:53:37;16.58;;;12.73;;
54123;SDS011;55741;53.252;5.788;2022-08-19T01:56:03;12.32;;;10.93;;
54123;SDS011;55741;53.252;5.788;2022-08-19T01:58:33;14.95;;;10.98;;
54123;SDS011;55741;53.252;5.788;2022-08-19T02:01:04;13.50;;;12.10;;
54123;SDS011;55741;53.252;5.788;2022-08-19T02:03:31;16.45;;;11.65;;
54123;SDS011;55741;53.252;5.788;2022-08-19T02:05:58;17.25;;;11.73;;
54123;SDS011;55741;53.252;5.788;2022-08-19T02:08:28;14.88;;;11.57;;
54123;SDS011;55741;53.252;5.788;2022-08-19T02:10:55;16.60;;;12.88;;
54123;SDS011;55741;53.252;5.788;2022-08-19T02:13:22;13.13;;;11.82;;
54123;SDS011;55741;53.252;5.788;2022-08-19T02:15:49;14.70;;;11.77;;
54123;SDS011;55741;53.252;5.788;2022-08-19T02:18:15;16.65;;;12.68;;
54123;SDS011;55741;53.252;5.788;2022-08-19T02:20:42;18.85;;;12.80;;
54123;SDS011;55741;53.252;5.788;2022-08-19T02:23:10;12.63;;;11.32;;
54123;SDS011;55741;53.252;5.788;2022-08-19T02:25:37;14.23;;;11.30;;
54123;SDS011;55741;53.252;5.788;2022-08-19T02:28:03;13.30;;;10.82;;
54123;SDS011;55741;53.252;5.788;2022-08-19T02:30:29;18.05;;;10.65;;
54123;SDS011;55741;53.252;5.788;2022-08-19T02:32:55;15.30;;;11.10;;
54123;SDS011;55741;53.252;5.788;2022-08-19T02:35:24;13.82;;;12.20;;
54123;SDS011;55741;53.252;5.788;2022-08-19T02:37:50;20.67;;;13.10;;
54123;SDS011;55741;53.252;5.788;2022-08-19T02:40:37;16.15;;;12.82;;
54123;SDS011;55741;53.252;5.788;2022-08-19T02:43:03;14.43;;;10.93;;
54123;SDS011;55741;53.252;5.788;2022-08-19T02:45:35;10.65;;;9.18;;
54123;SDS011;55741;53.252;5.788;2022-08-19T02:48:03;11.48;;;9.85;;
54123;SDS011;55741;53.252;5.788;2022-08-19T02:50:30;11.50;;;9.25;;
54123;SDS011;55741;53.252;5.788;2022-08-19T02:52:56;13.20;;;10.30;;
54123;SDS011;55741;53.252;5.788;2022-08-19T02:55:24;14.02;;;10.43;;
54123;SDS011;55741;53.252;5.788;2022-08-19T02:57:50;12.60;;;10.55;;
54123;SDS011;55741;53.252;5.788;2022-08-19T03:00:16;14.25;;;10.38;;
54123;SDS011;55741;53.252;5.788;2022-08-19T03:02:42;10.68;;;8.80;;
54123;SDS011;55741;53.252;5.788;2022-08-19T03:05:08;15.43;;;10.02;;
54123;SDS011;55741;53.252;5.788;2022-08-19T03:07:35;13.95;;;10.68;;
54123;SDS011;55741;53.252;5.788;2022-08-19T03:10:02;13.95;;;11.18;;
54123;SDS011;55741;53.252;5.788;2022-08-19T03:12:29;15.82;;;11.45;;
54123;SDS011;55741;53.252;5.788;2022-08-19T03:14:55;14.45;;;11.32;;
54123;SDS011;55741;53.252;5.788;2022-08-19T03:17:21;16.08;;;10.90;;
54123;SDS011;55741;53.252;5.788;2022-08-19T03:19:47;16.08;;;12.02;;
54123;SDS011;55741;53.252;5.788;2022-08-19T03:22:13;15.35;;;12.05;;
54123;SDS011;55741;53.252;5.788;2022-08-19T03:24:39;14.57;;;10.93;;
54123;SDS011;55741;53.252;5.788;2022-08-19T03:27:05;17.05;;;11.88;;
54123;SDS011;55741;53.252;5.788;2022-08-19T03:29:31;15.02;;;11.85;;
54123;SDS011;55741;53.252;5.788;2022-08-19T03:31:59;16.38;;;12.10;;
54123;SDS011;55741;53.252;5.788;2022-08-19T03:34:28;16.40;;;12.65;;
54123;SDS011;55741;53.252;5.788;2022-08-19T03:36:56;16.77;;;13.45;;
54123;SDS011;55741;53.252;5.788;2022-08-19T03:39:24;12.95;;;11.38;;
54123;SDS011;55741;53.252;5.788;2022-08-19T03:41:51;15.27;;;11.35;;
54123;SDS011;55741;53.252;5.788;2022-08-19T03:44:20;14.23;;;11.45;;
54123;SDS011;55741;53.252;5.788;2022-08-19T03:46:48;14.98;;;12.32;;
54123;SDS011;55741;53.252;5.788;2022-08-19T03:49:16;14.43;;;12.20;;
54123;SDS011;55741;53.252;5.788;2022-08-19T03:51:42;17.52;;;12.02;;
54123;SDS011;55741;53.252;5.788;2022-08-19T03:54:09;14.52;;;12.00;;
54123;SDS011;55741;53.252;5.788;2022-08-19T03:56:40;12.90;;;11.15;;
54123;SDS011;55741;53.252;5.788;2022-08-19T03:59:08;17.10;;;12.27;;
54123;SDS011;55741;53.252;5.788;2022-08-19T04:01:36;17.48;;;12.90;;
54123;SDS011;55741;53.252;5.788;2022-08-19T04:04:02;14.10;;;12.23;;
54123;SDS011;55741;53.252;5.788;2022-08-19T04:06:30;15.52;;;11.63;;
54123;SDS011;55741;53.252;5.788;2022-08-19T04:08:59;12.70;;;10.65;;
54123;SDS011;55741;53.252;5.788;2022-08-19T04:11:27;13.70;;;11.70;;
54123;SDS011;55741;53.252;5.788;2022-08-19T04:13:56;15.20;;;12.32;;
54123;SDS011;55741;53.252;5.788;2022-08-19T04:16:23;14.93;;;12.30;;
54123;SDS011;55741;53.252;5.788;2022-08-19T04:18:53;16.25;;;12.65;;
54123;SDS011;55741;53.252;5.788;2022-08-19T04:21:21;15.02;;;11.30;;
54123;SDS011;55741;53.252;5.788;2022-08-19T04:23:48;14.82;;;13.05;;
54123;SDS011;55741;53.252;5.788;2022-08-19T04:26:15;18.85;;;12.52;;
54123;SDS011;55741;53.252;5.788;2022-08-19T04:28:47;17.75;;;12.38;;
54123;SDS011;55741;53.252;5.788;2022-08-19T04:31:18;16.23;;;13.60;;
54123;SDS011;55741;53.252;5.788;2022-08-19T04:33:46;20.95;;;14.40;;
54123;SDS011;55741;53.252;5.788;2022-08-19T04:36:21;19.67;;;13.80;;
54123;SDS011;55741;53.252;5.788;2022-08-19T04:38:55;18.02;;;14.75;;
54123;SDS011;55741;53.252;5.788;2022-08-19T04:41:23;17.73;;;14.52;;
54123;SDS011;55741;53.252;5.788;2022-08-19T04:44:08;19.92;;;15.10;;
54123;SDS011;55741;53.252;5.788;2022-08-19T04:46:34;20.35;;;15.30;;
54123;SDS011;55741;53.252;5.788;2022-08-19T04:49:01;21.25;;;15.90;;
54123;SDS011;55741;53.252;5.788;2022-08-19T04:51:30;17.35;;;14.73;;
54123;SDS011;55741;53.252;5.788;2022-08-19T04:53:57;20.98;;;15.60;;
54123;SDS011;55741;53.252;5.788;2022-08-19T04:56:25;21.00;;;15.02;;
54123;SDS011;55741;53.252;5.788;2022-08-19T04:58:54;21.08;;;16.45;;
54123;SDS011;55741;53.252;5.788;2022-08-19T05:01:22;19.98;;;15.98;;
54123;SDS011;55741;53.252;5.788;2022-08-19T05:03:51;21.48;;;15.27;;
54123;SDS011;55741;53.252;5.788;2022-08-19T05:06:18;19.65;;;15.98;;
54123;SDS011;55741;53.252;5.788;2022-08-19T05:08:46;16.35;;;14.45;;
54123;SDS011;55741;53.252;5.788;2022-08-19T05:11:13;17.35;;;15.18;;
54123;SDS011;55741;53.252;5.788;2022-08-19T05:13:49;21.33;;;14.95;;
54123;SDS011;55741;53.252;5.788;2022-08-19T05:16:17;21.67;;;15.88;;
54123;SDS011;55741;53.252;5.788;2022-08-19T05:18:44;24.45;;;17.52;;
54123;SDS011;55741;53.252;5.788;2022-08-19T05:21:29;21.27;;;16.63;;
54123;SDS011;55741;53.252;5.788;2022-08-19T05:24:15;20.92;;;16.52;;
54123;SDS011;55741;53.252;5.788;2022-08-19T05:26:42;22.00;;;16.80;;
54123;SDS011;55741;53.252;5.788;2022-08-19T05:29:12;20.83;;;16.08;;
54123;SDS011;55741;53.252;5.788;2022-08-19T05:31:42;20.00;;;16.40;;
54123;SDS011;55741;53.252;5.788;2022-08-19T05:34:08;21.45;;;17.05;;
54123;SDS011;55741;53.252;5.788;2022-08-19T05:36:36;24.20;;;18.10;;
54123;SDS011;55741;53.252;5.788;2022-08-19T05:39:09;24.23;;;17.02;;
54123;SDS011;55741;53.252;5.788;2022-08-19T05:41:41;22.27;;;17.77;;
54123;SDS011;55741;53.252;5.788;2022-08-19T05:44:08;20.00;;;16.02;;
54123;SDS011;55741;53.252;5.788;2022-08-19T05:46:35;21.02;;;17.33;;
54123;SDS011;55741;53.252;5.788;2022-08-19T05:49:06;20.35;;;16.98;;
54123;SDS011;55741;53.252;5.788;2022-08-19T05:51:34;24.23;;;17.77;;
54123;SDS011;55741;53.252;5.788;2022-08-19T05:54:02;22.85;;;18.17;;
54123;SDS011;55741;53.252;5.788;2022-08-19T05:56:29;21.98;;;18.00;;
54123;SDS011;55741;53.252;5.788;2022-08-19T05:58:57;23.42;;;18.13;;
54123;SDS011;55741;53.252;5.788;2022-08-19T06:01:25;21.20;;;17.15;;
54123;SDS011;55741;53.252;5.788;2022-08-19T06:03:52;23.30;;;18.05;;
54123;SDS011;55741;53.252;5.788;2022-08-19T06:06:18;21.90;;;18.00;;
54123;SDS011;55741;53.252;5.788;2022-08-19T06:08:45;22.25;;;19.13;;
54123;SDS011;55741;53.252;5.788;2022-08-19T06:13:52;21.75;;;18.38;;
54123;SDS011;55741;53.252;5.788;2022-08-19T06:16:19;23.38;;;18.92;;
54123;SDS011;55741;53.252;5.788;2022-08-19T06:18:49;23.80;;;19.38;;
54123;SDS011;55741;53.252;5.788;2022-08-19T06:21:20;21.42;;;18.27;;
54123;SDS011;55741;53.252;5.788;2022-08-19T06:23:47;20.70;;;17.45;;
54123;SDS011;55741;53.252;5.788;2022-08-19T06:26:14;24.05;;;18.80;;
54123;SDS011;55741;53.252;5.788;2022-08-19T06:28:41;19.52;;;17.20;;
54123;SDS011;55741;53.252;5.788;2022-08-19T06:31:12;20.70;;;18.50;;
54123;SDS011;55741;53.252;5.788;2022-08-19T06:33:41;21.40;;;18.20;;
54123;SDS011;55741;53.252;5.788;2022-08-19T06:36:08;23.40;;;18.23;;
54123;SDS011;55741;53.252;5.788;2022-08-19T06:39:07;20.00;;;17.83;;
54123;SDS011;55741;53.252;5.788;2022-08-19T06:41:36;21.15;;;17.52;;
54123;SDS011;55741;53.252;5.788;2022-08-19T06:44:04;23.75;;;17.65;;
54123;SDS011;55741;53.252;5.788;2022-08-19T06:46:30;20.35;;;18.17;;
54123;SDS011;55741;53.252;5.788;2022-08-19T06:48:57;21.17;;;18.52;;
54123;SDS011;55741;53.252;5.788;2022-08-19T06:51:24;24.35;;;17.38;;
54123;SDS011;55741;53.252;5.788;2022-08-19T06:53:52;20.42;;;18.25;;
54123;SDS011;55741;53.252;5.788;2022-08-19T06:56:24;21.00;;;17.50;;
54123;SDS011;55741;53.252;5.788;2022-08-19T06:58:58;18.67;;;16.67;;
54123;SDS011;55741;53.252;5.788;2022-08-19T07:01:25;19.73;;;17.63;;
54123;SDS011;55741;53.252;5.788;2022-08-19T07:03:51;21.90;;;17.88;;
54123;SDS011;55741;53.252;5.788;2022-08-19T07:06:18;21.90;;;18.20;;
54123;SDS011;55741;53.252;5.788;2022-08-19T07:08:45;20.17;;;18.05;;
54123;SDS011;55741;53.252;5.788;2022-08-19T07:11:12;19.75;;;17.48;;
54123;SDS011;55741;53.252;5.788;2022-08-19T07:13:43;20.40;;;17.48;;
54123;SDS011;55741;53.252;5.788;2022-08-19T07:16:16;21.27;;;18.88;;
54123;SDS011;55741;53.252;5.788;2022-08-19T07:18:47;20.38;;;18.25;;
54123;SDS011;55741;53.252;5.788;2022-08-19T07:21:19;19.30;;;17.35;;
54123;SDS011;55741;53.252;5.788;2022-08-19T07:23:47;21.02;;;18.70;;
54123;SDS011;55741;53.252;5.788;2022-08-19T07:26:15;21.42;;;19.17;;
54123;SDS011;55741;53.252;5.788;2022-08-19T07:28:44;21.02;;;18.40;;
54123;SDS011;55741;53.252;5.788;2022-08-19T07:31:12;21.88;;;19.63;;
54123;SDS011;55741;53.252;5.788;2022-08-19T07:33:40;20.45;;;18.35;;
54123;SDS011;55741;53.252;5.788;2022-08-19T07:36:08;22.23;;;19.77;;
54123;SDS011;55741;53.252;5.788;2022-08-19T07:38:40;22.65;;;19.92;;
54123;SDS011;55741;53.252;5.788;2022-08-19T07:41:10;22.10;;;19.77;;
54123;SDS011;55741;53.252;5.788;2022-08-19T07:43:38;21.65;;;19.50;;
54123;SDS011;55741;53.252;5.788;2022-08-19T07:46:04;23.85;;;21.48;;
54123;SDS011;55741;53.252;5.788;2022-08-19T07:48:30;23.52;;;20.98;;
54123;SDS011;55741;53.252;5.788;2022-08-19T07:50:57;21.92;;;19.83;;
54123;SDS011;55741;53.252;5.788;2022-08-19T07:53:30;25.80;;;21.52;;
54123;SDS011;55741;53.252;5.788;2022-08-19T07:55:58;26.05;;;22.95;;
54123;SDS011;55741;53.252;5.788;2022-08-19T07:58:33;24.90;;;22.30;;
54123;SDS011;55741;53.252;5.788;2022-08-19T08:01:03;27.17;;;22.80;;
54123;SDS011;55741;53.252;5.788;2022-08-19T08:03:30;26.63;;;23.77;;
54123;SDS011;55741;53.252;5.788;2022-08-19T08:06:15;27.05;;;24.23;;
54123;SDS011;55741;53.252;5.788;2022-08-19T08:08:59;26.07;;;23.40;;
54123;SDS011;55741;53.252;5.788;2022-08-19T08:11:50;26.58;;;23.75;;
54123;SDS011;55741;53.252;5.788;2022-08-19T08:14:26;28.60;;;25.70;;
54123;SDS011;55741;53.252;5.788;2022-08-19T08:16:55;31.13;;;27.65;;
54123;SDS011;55741;53.252;5.788;2022-08-19T08:19:22;30.23;;;27.05;;
54123;SDS011;55741;53.252;5.788;2022-08-19T08:21:50;27.95;;;25.05;;
54123;SDS011;55741;53.252;5.788;2022-08-19T08:24:16;31.95;;;28.60;;
54123;SDS011;55741;53.252;5.788;2022-08-19T08:26:43;31.63;;;28.50;;
54123;SDS011;55741;53.252;5.788;2022-08-19T08:29:12;30.90;;;27.70;;
54123;SDS011;55741;53.252;5.788;2022-08-19T08:31:39;29.63;;;26.60;;
54123;SDS011;55741;53.252;5.788;2022-08-19T08:34:06;30.15;;;27.10;;
54123;SDS011;55741;53.252;5.788;2022-08-19T08:36:32;31.90;;;28.50;;
54123;SDS011;55741;53.252;5.788;2022-08-19T08:39:01;29.73;;;26.50;;
54123;SDS011;55741;53.252;5.788;2022-08-19T08:41:28;29.73;;;26.70;;
54123;SDS011;55741;53.252;5.788;2022-08-19T08:44:02;29.73;;;26.65;;
54123;SDS011;55741;53.252;5.788;2022-08-19T08:46:37;27.45;;;24.40;;
54123;SDS011;55741;53.252;5.788;2022-08-19T08:52:15;27.08;;;24.25;;
54123;SDS011;55741;53.252;5.788;2022-08-19T08:54:46;27.33;;;23.25;;
54123;SDS011;55741;53.252;5.788;2022-08-19T08:57:14;28.10;;;24.88;;
54123;SDS011;55741;53.252;5.788;2022-08-19T08:59:45;25.55;;;23.02;;
54123;SDS011;55741;53.252;5.788;2022-08-19T09:02:18;27.25;;;23.70;;
54123;SDS011;55741;53.252;5.788;2022-08-19T09:04:44;28.55;;;23.30;;
54123;SDS011;55741;53.252;5.788;2022-08-19T09:07:13;26.73;;;21.40;;
54123;SDS011;55741;53.252;5.788;2022-08-19T09:09:48;23.55;;;18.25;;
54123;SDS011;55741;53.252;5.788;2022-08-19T09:12:38;24.70;;;18.75;;
54123;SDS011;55741;53.252;5.788;2022-08-19T09:15:09;22.65;;;17.33;;
54123;SDS011;55741;53.252;5.788;2022-08-19T09:17:38;19.27;;;15.95;;
54123;SDS011;55741;53.252;5.788;2022-08-19T09:22:41;22.25;;;16.48;;
54123;SDS011;55741;53.252;5.788;2022-08-19T09:25:13;21.60;;;15.32;;
54123;SDS011;55741;53.252;5.788;2022-08-19T09:27:47;19.38;;;16.42;;
54123;SDS011;55741;53.252;5.788;2022-08-19T09:30:15;21.70;;;14.63;;
54123;SDS011;55741;53.252;5.788;2022-08-19T09:32:43;18.17;;;13.55;;
54123;SDS011;55741;53.252;5.788;2022-08-19T09:35:11;18.60;;;13.48;;
54123;SDS011;55741;53.252;5.788;2022-08-19T09:37:38;20.33;;;16.13;;
54123;SDS011;55741;53.252;5.788;2022-08-19T09:40:04;19.58;;;15.50;;
54123;SDS011;55741;53.252;5.788;2022-08-19T09:42:32;19.33;;;14.82;;
54123;SDS011;55741;53.252;5.788;2022-08-19T09:44:59;22.30;;;15.63;;
54123;SDS011;55741;53.252;5.788;2022-08-19T09:47:25;20.02;;;15.10;;
54123;SDS011;55741;53.252;5.788;2022-08-19T09:49:51;22.05;;;16.85;;
54123;SDS011;55741;53.252;5.788;2022-08-19T09:52:16;20.80;;;14.45;;
54123;SDS011;55741;53.252;5.788;2022-08-19T09:54:43;20.63;;;14.35;;
54123;SDS011;55741;53.252;5.788;2022-08-19T09:57:09;20.17;;;13.63;;
54123;SDS011;55741;53.252;5.788;2022-08-19T09:59:35;20.73;;;14.75;;
54123;SDS011;55741;53.252;5.788;2022-08-19T10:02:00;19.15;;;13.70;;
54123;SDS011;55741;53.252;5.788;2022-08-19T10:04:28;21.23;;;13.65;;
54123;SDS011;55741;53.252;5.788;2022-08-19T10:07:13;21.52;;;14.13;;
54123;SDS011;55741;53.252;5.788;2022-08-19T10:09:39;21.25;;;14.23;;
54123;SDS011;55741;53.252;5.788;2022-08-19T10:12:06;18.00;;;13.85;;
54123;SDS011;55741;53.252;5.788;2022-08-19T10:14:33;19.13;;;12.85;;
54123;SDS011;55741;53.252;5.788;2022-08-19T10:16:59;15.70;;;11.82;;
54123;SDS011;55741;53.252;5.788;2022-08-19T10:19:27;19.13;;;11.70;;
54123;SDS011;55741;53.252;5.788;2022-08-19T10:21:57;19.40;;;12.32;;
54123;SDS011;55741;53.252;5.788;2022-08-19T10:24:23;15.88;;;11.18;;
54123;SDS011;55741;53.252;5.788;2022-08-19T10:26:50;17.73;;;10.40;;
54123;SDS011;55741;53.252;5.788;2022-08-19T10:29:16;16.20;;;10.95;;
54123;SDS011;55741;53.252;5.788;2022-08-19T10:31:42;14.55;;;10.18;;
54123;SDS011;55741;53.252;5.788;2022-08-19T10:34:08;19.85;;;11.68;;
54123;SDS011;55741;53.252;5.788;2022-08-19T10:36:35;16.40;;;11.07;;
54123;SDS011;55741;53.252;5.788;2022-08-19T10:39:06;14.48;;;9.52;;
54123;SDS011;55741;53.252;5.788;2022-08-19T10:41:35;18.92;;;11.65;;
54123;SDS011;55741;53.252;5.788;2022-08-19T10:44:03;17.52;;;10.90;;
54123;SDS011;55741;53.252;5.788;2022-08-19T10:46:32;15.43;;;10.75;;
54123;SDS011;55741;53.252;5.788;2022-08-19T10:49:00;17.60;;;11.65;;
54123;SDS011;55741;53.252;5.788;2022-08-19T10:51:27;15.80;;;11.38;;
54123;SDS011;55741;53.252;5.788;2022-08-19T10:54:12;16.42;;;11.35;;
54123;SDS011;55741;53.252;5.788;2022-08-19T10:56:38;16.30;;;9.40;;
54123;SDS011;55741;53.252;5.788;2022-08-19T10:59:23;14.52;;;10.13;;
54123;SDS011;55741;53.252;5.788;2022-08-19T11:01:54;15.25;;;11.05;;
54123;SDS011;55741;53.252;5.788;2022-08-19T11:04:24;19.58;;;12.25;;
54123;SDS011;55741;53.252;5.788;2022-08-19T11:06:52;15.73;;;10.63;;
54123;SDS011;55741;53.252;5.788;2022-08-19T11:09:19;17.33;;;11.38;;
54123;SDS011;55741;53.252;5.788;2022-08-19T11:11:49;15.18;;;9.45;;
54123;SDS011;55741;53.252;5.788;2022-08-19T11:14:17;14.13;;;8.88;;
54123;SDS011;55741;53.252;5.788;2022-08-19T11:16:45;13.57;;;8.60;;
54123;SDS011;55741;53.252;5.788;2022-08-19T11:19:15;11.15;;;8.10;;
54123;SDS011;55741;53.252;5.788;2022-08-19T11:21:44;14.80;;;8.50;;
54123;SDS011;55741;53.252;5.788;2022-08-19T11:24:13;11.25;;;6.95;;
54123;SDS011;55741;53.252;5.788;2022-08-19T11:26:42;11.35;;;7.40;;
54123;SDS011;55741;53.252;5.788;2022-08-19T11:29:09;13.10;;;7.90;;
54123;SDS011;55741;53.252;5.788;2022-08-19T11:31:39;14.55;;;9.55;;
54123;SDS011;55741;53.252;5.788;2022-08-19T11:34:08;14.40;;;9.40;;
54123;SDS011;55741;53.252;5.788;2022-08-19T11:36:37;15.18;;;10.15;;
54123;SDS011;55741;53.252;5.788;2022-08-19T11:39:05;15.02;;;10.45;;
54123;SDS011;55741;53.252;5.788;2022-08-19T11:41:34;13.18;;;10.25;;
54123;SDS011;55741;53.252;5.788;2022-08-19T11:44:00;14.90;;;12.35;;
54123;SDS011;55741;53.252;5.788;2022-08-19T11:46:28;16.77;;;11.75;;
54123;SDS011;55741;53.252;5.788;2022-08-19T11:48:58;17.27;;;11.32;;
54123;SDS011;55741;53.252;5.788;2022-08-19T11:51:26;15.68;;;9.98;;
54123;SDS011;55741;53.252;5.788;2022-08-19T11:53:55;17.25;;;11.23;;
54123;SDS011;55741;53.252;5.788;2022-08-19T11:56:22;17.83;;;11.07;;
54123;SDS011;55741;53.252;5.788;2022-08-19T11:58:49;13.40;;;10.43;;
54123;SDS011;55741;53.252;5.788;2022-08-19T12:01:16;17.10;;;9.35;;
54123;SDS011;55741;53.252;5.788;2022-08-19T12:03:44;15.80;;;9.52;;
54123;SDS011;55741;53.252;5.788;2022-08-19T12:06:12;14.77;;;9.70;;
54123;SDS011;55741;53.252;5.788;2022-08-19T12:08:41;13.85;;;11.27;;
54123;SDS011;55741;53.252;5.788;2022-08-19T12:11:09;15.27;;;10.07;;
54123;SDS011;55741;53.252;5.788;2022-08-19T12:13:36;15.20;;;9.40;;
54123;SDS011;55741;53.252;5.788;2022-08-19T12:16:14;14.73;;;10.35;;
54123;SDS011;55741;53.252;5.788;2022-08-19T12:18:47;16.15;;;9.68;;
54123;SDS011;55741;53.252;5.788;2022-08-19T12:21:14;14.75;;;9.40;;
54123;SDS011;55741;53.252;5.788;2022-08-19T12:23:42;13.18;;;11.02;;
54123;SDS011;55741;53.252;5.788;2022-08-19T12:26:10;17.55;;;11.10;;
54123;SDS011;55741;53.252;5.788;2022-08-19T12:28:36;12.07;;;10.75;;
54123;SDS011;55741;53.252;5.788;2022-08-19T12:31:03;14.23;;;10.07;;
54123;SDS011;55741;53.252;5.788;2022-08-19T12:33:31;13.43;;;10.27;;
54123;SDS011;55741;53.252;5.788;2022-08-19T12:36:01;15.52;;;10.63;;
54123;SDS011;55741;53.252;5.788;2022-08-19T12:38:29;17.77;;;12.75;;
54123;SDS011;55741;53.252;5.788;2022-08-19T12:40:55;16.55;;;12.95;;
54123;SDS011;55741;53.252;5.788;2022-08-19T12:43:21;18.55;;;12.25;;
54123;SDS011;55741;53.252;5.788;2022-08-19T12:45:48;14.82;;;11.90;;
54123;SDS011;55741;53.252;5.788;2022-08-19T12:48:17;17.13;;;13.27;;
54123;SDS011;55741;53.252;5.788;2022-08-19T12:50:43;15.05;;;12.73;;
54123;SDS011;55741;53.252;5.788;2022-08-19T12:53:13;15.45;;;11.27;;
54123;SDS011;55741;53.252;5.788;2022-08-19T12:55:40;17.15;;;11.20;;
54123;SDS011;55741;53.252;5.788;2022-08-19T12:58:07;13.48;;;11.13;;
54123;SDS011;55741;53.252;5.788;2022-08-19T13:00:34;19.75;;;12.60;;
54123;SDS011;55741;53.252;5.788;2022-08-19T13:03:03;13.90;;;10.48;;
54123;SDS011;55741;53.252;5.788;2022-08-19T13:05:30;15.30;;;11.23;;
54123;SDS011;55741;53.252;5.788;2022-08-19T13:08:02;15.88;;;10.65;;
54123;SDS011;55741;53.252;5.788;2022-08-19T13:10:31;15.50;;;11.30;;
54123;SDS011;55741;53.252;5.788;2022-08-19T13:13:06;16.10;;;11.85;;
54123;SDS011;55741;53.252;5.788;2022-08-19T13:15:34;15.27;;;12.50;;
54123;SDS011;55741;53.252;5.788;2022-08-19T13:18:02;16.77;;;11.60;;
54123;SDS011;55741;53.252;5.788;2022-08-19T13:20:28;15.02;;;12.07;;
54123;SDS011;55741;53.252;5.788;2022-08-19T13:22:54;17.20;;;11.45;;
54123;SDS011;55741;53.252;5.788;2022-08-19T13:25:22;17.88;;;12.40;;
54123;SDS011;55741;53.252;5.788;2022-08-19T13:27:49;14.57;;;11.30;;
54123;SDS011;55741;53.252;5.788;2022-08-19T13:30:16;19.08;;;11.57;;
54123;SDS011;55741;53.252;5.788;2022-08-19T13:33:02;13.75;;;11.05;;
54123;SDS011;55741;53.252;5.788;2022-08-19T13:35:45;14.18;;;10.77;;
54123;SDS011;55741;53.252;5.788;2022-08-19T13:38:14;13.40;;;9.65;;
54123;SDS011;55741;53.252;5.788;2022-08-19T13:40:42;11.60;;;9.50;;
54123;SDS011;55741;53.252;5.788;2022-08-19T13:43:08;12.57;;;9.10;;
54123;SDS011;55741;53.252;5.788;2022-08-19T13:45:34;13.02;;;9.60;;
54123;SDS011;55741;53.252;5.788;2022-08-19T13:48:03;13.65;;;10.55;;
54123;SDS011;55741;53.252;5.788;2022-08-19T13:50:34;15.20;;;9.63;;
54123;SDS011;55741;53.252;5.788;2022-08-19T13:53:07;13.07;;;10.10;;
54123;SDS011;55741;53.252;5.788;2022-08-19T13:55:34;15.07;;;10.13;;
54123;SDS011;55741;53.252;5.788;2022-08-19T13:58:02;15.18;;;10.07;;
54123;SDS011;55741;53.252;5.788;2022-08-19T14:00:30;13.48;;;10.27;;
54123;SDS011;55741;53.252;5.788;2022-08-19T14:02:58;15.48;;;8.77;;
54123;SDS011;55741;53.252;5.788;2022-08-19T14:05:25;10.50;;;8.10;;
54123;SDS011;55741;53.252;5.788;2022-08-19T14:07:52;11.70;;;8.98;;
54123;SDS011;55741;53.252;5.788;2022-08-19T14:10:18;9.57;;;7.45;;
54123;SDS011;55741;53.252;5.788;2022-08-19T14:12:46;11.68;;;6.88;;
54123;SDS011;55741;53.252;5.788;2022-08-19T14:15:13;11.85;;;6.30;;
54123;SDS011;55741;53.252;5.788;2022-08-19T14:17:40;10.27;;;7.32;;
54123;SDS011;55741;53.252;5.788;2022-08-19T14:20:08;10.55;;;7.43;;
54123;SDS011;55741;53.252;5.788;2022-08-19T14:22:36;10.60;;;7.13;;
54123;SDS011;55741;53.252;5.788;2022-08-19T14:25:03;8.57;;;7.10;;
54123;SDS011;55741;53.252;5.788;2022-08-19T14:27:32;9.73;;;7.18;;
54123;SDS011;55741;53.252;5.788;2022-08-19T14:29:59;12.73;;;9.02;;
54123;SDS011;55741;53.252;5.788;2022-08-19T14:32:25;11.90;;;6.97;;
54123;SDS011;55741;53.252;5.788;2022-08-19T14:34:52;9.85;;;8.27;;
54123;SDS011;55741;53.252;5.788;2022-08-19T14:37:19;11.00;;;8.32;;
54123;SDS011;55741;53.252;5.788;2022-08-19T14:39:52;9.85;;;8.02;;
54123;SDS011;55741;53.252;5.788;2022-08-19T14:42:18;10.13;;;7.32;;